Pagina principale
METAR-TAF:

METAR-TAF

Aeroporti :

Gibuti, Gibuti

latitudine: 11-33N, longitudine: 043-10E, altezza: 49 m

Osservazione

Il bollettino è stato emesso 2 ore e 46 minuti fa, alle 11:00 UTC
Vento 14 kt da est
Temperature 30°C
Umidità 55%
Pressione 1009 hPa
Nubi sparse ad un'altezza di 2000 ft

METAR: HDAM 241100Z 08014KT 9/9 SCT020 30/20 Q1009

Ora: 16:46 (13:46 UTC)

Previsione

Il bollettino è stato emesso 2 ore e 46 minuti fa, alle 11:00 UTC
Previsione valida dal 24 alle 12 UTC al 25 alle 12 UTC
Vento 10 kt da est
Nubi sparse ad un'altezza di 2300 ft
Evoluzione graduale
dal 24 alle 15 UTC al 25 alle 21 UTC
Vento 3 kt da direzioni variabili
Poco nuvoloso ad un'altezza di 2300 ft
Evoluzione graduale
dal 25 alle 00 UTC al 25 alle 06 UTC
Vento kt da nord
Nubi sparse ad un'altezza di 2000 ft

TAF: HDAM 241100Z 2412/2512 08010KT 9/9 SCT023 BECMG 2415/2521 VRB03KT FEW023 BECMG 2500/2506 00000KT SCT020

Osservazioni e previsioni meteorologiche di più di 4000 aeroporti (messaggi METAR e TAF).

Le stazioni disponibili sono rappresentate dai dischi gialli e rossi sulla carta.

Puntare il mouse per vedere il nome della stazione.

Clicca sopra per visualizzare le osservazioni e previsioni meteorologiche.

Per cambiare la mappa : fare clic sui pulsanti verdi con una croce nera per ingrandire, il pulsante verde con un trattino per diminuire, o sulla freccia verde per le mappe adiacenti.


METAR-TAF: